Huvudsida
METAR-TAF:

METAR-TAF

Flygplatser :

Kittilä, Finland

Kittilä flygplats

latitud: 67-42N, longitud: 024-51E, höjd: 196 m

Aktuellt väderrapport

Denna rapport gjordes för 35 minuter sedan, klockan 10:20 UTC
Vind 1 kt från nord
Temperatur -19°C
Fuktighet 77%
Tryck 1007 hPa
Sikt 10 km eller mer
Spridda moln på en höjd av 1700 ft

METAR: EFKT 171020Z 01001KT 9999 SCT017 M19/M22 Q1007

Tid: 12:55 (10:55 UTC)

Väderprognos

Denna rapport gjordes för 6 minuter sedan, klockan 10:49 UTC
Prognos gäller från 17 kl. 11 UTC till 17 kl. 17 UTC
Vind 4 kt från ost/sydost
Sikt 10 km eller mer
Mulet på en höjd av 1400 ft
Temporärt
från 17 kl. 12 UTC till 17 kl. 17 UTC
Sikt: 5000 m
Brutna moln på en höjd av 700 ft
lätt snö

TAF: EFKT 171049Z 1711/1717 12004KT 9999 OVC014 TEMPO 1712/1717 5000 -SN BKN007

Aktuella väderrapporter och prognoser från 4000 flygplatser (METAR- och TAF-rapporter).

De tillgängliga stationerna syns som gula och röda prickar på kartan.

För musen över prickarna för att se namnen på stationerna.

Klicka sedan för att få väderrapporter och prognoser.

För att ändra kartan: Klicka på de gröna knapparna med ett svart kors på för att zooma in; den gröna knappen med ett streck på för att zooma ut; eller på de gröna pilarna för angränsande kartor.


METAR-TAF: